Artesia Camp, New Mexico
Current Conditions -  °F | °C
As of 2:55 PM on Sunday 23 Nov 2014 (Local Time) from KALM Reporting Station
Clear Clear  
Wind Chill: 61°   Ceiling: Unl
Heat Index: 61°   Visibility: 10mi
Dew Point: 14°   Wind: 26mph
Humidity: 16%   Direction: 320°NW
Pressure: 29.8"   Gusts: 37mph
Location:  32.7847°N, 105.644°W
Report Text: KALM 232155Z AUTO 32023G32KT 10SM CLR 16/M10 A2980 RMK AO2
Loading
Personal Weather Stations






























Interactive Weather Map New forecast layout! Learn more

10-Day Weather Forecast

Advertisements
Track Severe Weather on mobile